sensor_id;sensor_type;location;lat;lon;timestamp;temperature;humidity
8269;DHT22;4174;48.304;16.364;2023-04-24T00:03:46;16.10;99.90
8269;DHT22;4174;48.304;16.364;2023-04-24T00:09:50;16.20;99.90
8269;DHT22;4174;48.304;16.364;2023-04-24T00:15:55;16.00;99.90
8269;DHT22;4174;48.304;16.364;2023-04-24T00:21:58;16.10;99.90
8269;DHT22;4174;48.304;16.364;2023-04-24T00:28:02;16.10;99.90
8269;DHT22;4174;48.304;16.364;2023-04-24T00:34:05;16.10;99.90
8269;DHT22;4174;48.304;16.364;2023-04-24T00:40:09;16.10;99.90
8269;DHT22;4174;48.304;16.364;2023-04-24T00:46:14;16.00;99.90
8269;DHT22;4174;48.304;16.364;2023-04-24T00:52:17;16.00;99.90
8269;DHT22;4174;48.304;16.364;2023-04-24T00:58:20;15.70;99.90
8269;DHT22;4174;48.304;16.364;2023-04-24T01:04:23;15.40;99.90
8269;DHT22;4174;48.304;16.364;2023-04-24T01:10:26;15.40;99.90
8269;DHT22;4174;48.304;16.364;2023-04-24T01:16:29;15.30;99.90
8269;DHT22;4174;48.304;16.364;2023-04-24T01:22:33;15.40;99.90
8269;DHT22;4174;48.304;16.364;2023-04-24T01:28:35;15.30;99.90
8269;DHT22;4174;48.304;16.364;2023-04-24T01:34:38;15.20;99.90
8269;DHT22;4174;48.304;16.364;2023-04-24T01:40:43;15.40;99.90
8269;DHT22;4174;48.304;16.364;2023-04-24T01:46:45;15.40;99.90
8269;DHT22;4174;48.304;16.364;2023-04-24T01:52:49;15.20;99.90
8269;DHT22;4174;48.304;16.364;2023-04-24T01:58:53;14.90;99.90
8269;DHT22;4174;48.304;16.364;2023-04-24T02:04:56;14.90;99.90
8269;DHT22;4174;48.304;16.364;2023-04-24T02:11:00;14.50;99.90
8269;DHT22;4174;48.304;16.364;2023-04-24T02:17:04;14.50;99.90
8269;DHT22;4174;48.304;16.364;2023-04-24T02:23:08;14.40;99.90
8269;DHT22;4174;48.304;16.364;2023-04-24T02:29:13;14.20;99.90
8269;DHT22;4174;48.304;16.364;2023-04-24T02:35:16;14.20;99.90
8269;DHT22;4174;48.304;16.364;2023-04-24T02:41:20;14.20;99.90
8269;DHT22;4174;48.304;16.364;2023-04-24T02:47:24;14.10;99.90
8269;DHT22;4174;48.304;16.364;2023-04-24T02:53:27;13.40;99.90
8269;DHT22;4174;48.304;16.364;2023-04-24T02:59:31;13.60;99.90
8269;DHT22;4174;48.304;16.364;2023-04-24T03:05:35;13.70;99.90
8269;DHT22;4174;48.304;16.364;2023-04-24T03:11:39;13.70;99.90
8269;DHT22;4174;48.304;16.364;2023-04-24T03:17:44;13.70;99.90
8269;DHT22;4174;48.304;16.364;2023-04-24T03:23:47;13.70;99.90
8269;DHT22;4174;48.304;16.364;2023-04-24T03:29:52;13.60;99.90
8269;DHT22;4174;48.304;16.364;2023-04-24T03:35:56;13.40;99.90
8269;DHT22;4174;48.304;16.364;2023-04-24T03:42:00;13.30;99.90
8269;DHT22;4174;48.304;16.364;2023-04-24T03:48:03;13.40;99.90
8269;DHT22;4174;48.304;16.364;2023-04-24T03:54:07;13.40;99.90
8269;DHT22;4174;48.304;16.364;2023-04-24T04:00:13;13.10;99.90
8269;DHT22;4174;48.304;16.364;2023-04-24T04:06:17;13.20;99.90
8269;DHT22;4174;48.304;16.364;2023-04-24T04:12:21;13.10;99.90
8269;DHT22;4174;48.304;16.364;2023-04-24T04:18:25;13.30;99.90
8269;DHT22;4174;48.304;16.364;2023-04-24T04:24:29;13.40;99.90
8269;DHT22;4174;48.304;16.364;2023-04-24T04:30:33;13.60;99.90
8269;DHT22;4174;48.304;16.364;2023-04-24T04:36:37;13.90;99.90
8269;DHT22;4174;48.304;16.364;2023-04-24T04:42:40;14.20;99.90
8269;DHT22;4174;48.304;16.364;2023-04-24T04:48:44;14.50;99.90
8269;DHT22;4174;48.304;16.364;2023-04-24T04:54:48;14.50;99.90
8269;DHT22;4174;48.304;16.364;2023-04-24T05:00:52;14.80;99.90
8269;DHT22;4174;48.304;16.364;2023-04-24T05:06:55;14.90;99.90
8269;DHT22;4174;48.304;16.364;2023-04-24T05:12:59;15.00;99.90
8269;DHT22;4174;48.304;16.364;2023-04-24T05:19:03;15.00;99.90
8269;DHT22;4174;48.304;16.364;2023-04-24T05:25:07;15.40;99.90
8269;DHT22;4174;48.304;16.364;2023-04-24T05:31:11;16.00;99.90
8269;DHT22;4174;48.304;16.364;2023-04-24T05:37:14;16.50;99.90
8269;DHT22;4174;48.304;16.364;2023-04-24T05:43:19;16.60;99.90
8269;DHT22;4174;48.304;16.364;2023-04-24T05:49:23;17.10;99.90
8269;DHT22;4174;48.304;16.364;2023-04-24T05:55:28;17.10;99.90
8269;DHT22;4174;48.304;16.364;2023-04-24T06:01:31;17.10;99.90
8269;DHT22;4174;48.304;16.364;2023-04-24T06:07:34;17.00;99.90
8269;DHT22;4174;48.304;16.364;2023-04-24T06:13:38;17.00;99.90
8269;DHT22;4174;48.304;16.364;2023-04-24T06:19:42;16.40;99.90
8269;DHT22;4174;48.304;16.364;2023-04-24T06:25:46;16.40;99.90
8269;DHT22;4174;48.304;16.364;2023-04-24T06:31:50;16.10;99.90
8269;DHT22;4174;48.304;16.364;2023-04-24T06:37:54;16.10;99.90
8269;DHT22;4174;48.304;16.364;2023-04-24T06:43:57;16.30;99.90
8269;DHT22;4174;48.304;16.364;2023-04-24T06:50:01;16.30;99.90
8269;DHT22;4174;48.304;16.364;2023-04-24T06:56:06;16.50;99.90
8269;DHT22;4174;48.304;16.364;2023-04-24T07:02:09;16.90;99.90
8269;DHT22;4174;48.304;16.364;2023-04-24T07:08:13;16.90;99.90
8269;DHT22;4174;48.304;16.364;2023-04-24T07:14:16;17.90;99.90
8269;DHT22;4174;48.304;16.364;2023-04-24T07:20:19;18.00;99.90
8269;DHT22;4174;48.304;16.364;2023-04-24T07:26:23;17.80;99.90
8269;DHT22;4174;48.304;16.364;2023-04-24T07:32:27;17.70;99.90
8269;DHT22;4174;48.304;16.364;2023-04-24T07:38:30;17.40;99.90
8269;DHT22;4174;48.304;16.364;2023-04-24T07:44:33;17.30;99.90
8269;DHT22;4174;48.304;16.364;2023-04-24T07:50:37;17.20;99.90
8269;DHT22;4174;48.304;16.364;2023-04-24T07:56:40;17.20;99.90
8269;DHT22;4174;48.304;16.364;2023-04-24T08:02:43;17.60;99.90
8269;DHT22;4174;48.304;16.364;2023-04-24T08:08:47;17.60;99.90
8269;DHT22;4174;48.304;16.364;2023-04-24T08:14:50;17.30;99.90
8269;DHT22;4174;48.304;16.364;2023-04-24T08:20:54;17.40;99.90
8269;DHT22;4174;48.304;16.364;2023-04-24T08:26:58;17.20;99.90
8269;DHT22;4174;48.304;16.364;2023-04-24T08:33:01;16.90;99.90
8269;DHT22;4174;48.304;16.364;2023-04-24T08:39:05;16.50;99.90
8269;DHT22;4174;48.304;16.364;2023-04-24T08:45:09;16.50;99.90
8269;DHT22;4174;48.304;16.364;2023-04-24T08:51:13;16.60;99.90
8269;DHT22;4174;48.304;16.364;2023-04-24T08:57:17;16.50;99.90
8269;DHT22;4174;48.304;16.364;2023-04-24T09:03:20;16.50;99.90
8269;DHT22;4174;48.304;16.364;2023-04-24T09:09:24;16.50;99.90
8269;DHT22;4174;48.304;16.364;2023-04-24T09:15:25;16.00;99.90
8269;DHT22;4174;48.304;16.364;2023-04-24T09:21:32;15.50;99.90
8269;DHT22;4174;48.304;16.364;2023-04-24T09:27:35;15.00;99.90
8269;DHT22;4174;48.304;16.364;2023-04-24T09:33:39;15.00;99.90
8269;DHT22;4174;48.304;16.364;2023-04-24T09:39:43;14.70;99.90
8269;DHT22;4174;48.304;16.364;2023-04-24T09:45:46;14.80;99.90
8269;DHT22;4174;48.304;16.364;2023-04-24T09:51:50;14.70;99.90
8269;DHT22;4174;48.304;16.364;2023-04-24T09:57:55;14.80;99.90
8269;DHT22;4174;48.304;16.364;2023-04-24T10:04:00;14.60;99.90
8269;DHT22;4174;48.304;16.364;2023-04-24T10:10:05;14.80;99.90
8269;DHT22;4174;48.304;16.364;2023-04-24T10:16:09;14.80;99.90
8269;DHT22;4174;48.304;16.364;2023-04-24T10:22:12;14.80;99.90
8269;DHT22;4174;48.304;16.364;2023-04-24T10:28:16;14.80;99.90
8269;DHT22;4174;48.304;16.364;2023-04-24T10:34:19;14.80;99.90
8269;DHT22;4174;48.304;16.364;2023-04-24T10:40:26;14.80;99.90
8269;DHT22;4174;48.304;16.364;2023-04-24T10:46:28;14.90;99.90
8269;DHT22;4174;48.304;16.364;2023-04-24T10:58:54;14.90;99.90
8269;DHT22;4174;48.304;16.364;2023-04-24T11:04:57;14.90;99.90
8269;DHT22;4174;48.304;16.364;2023-04-24T11:11:04;14.90;99.90
8269;DHT22;4174;48.304;16.364;2023-04-24T11:17:06;15.00;99.90
8269;DHT22;4174;48.304;16.364;2023-04-24T11:23:11;14.90;99.90
8269;DHT22;4174;48.304;16.364;2023-04-24T11:29:13;14.90;99.90
8269;DHT22;4174;48.304;16.364;2023-04-24T11:35:16;14.70;99.90
8269;DHT22;4174;48.304;16.364;2023-04-24T11:41:21;14.50;99.90
8269;DHT22;4174;48.304;16.364;2023-04-24T11:47:29;14.50;99.90
8269;DHT22;4174;48.304;16.364;2023-04-24T11:53:31;14.40;99.90
8269;DHT22;4174;48.304;16.364;2023-04-24T11:59:35;14.10;99.90
8269;DHT22;4174;48.304;16.364;2023-04-24T12:05:38;14.50;99.90
8269;DHT22;4174;48.304;16.364;2023-04-24T12:11:52;14.50;99.90
8269;DHT22;4174;48.304;16.364;2023-04-24T12:17:44;14.80;99.90
8269;DHT22;4174;48.304;16.364;2023-04-24T12:23:48;15.10;99.90
8269;DHT22;4174;48.304;16.364;2023-04-24T12:29:52;15.20;99.90
8269;DHT22;4174;48.304;16.364;2023-04-24T12:35:58;15.30;99.90
8269;DHT22;4174;48.304;16.364;2023-04-24T12:42:02;15.80;99.90
8269;DHT22;4174;48.304;16.364;2023-04-24T12:48:05;16.00;99.90
8269;DHT22;4174;48.304;16.364;2023-04-24T12:54:09;16.50;99.90
8269;DHT22;4174;48.304;16.364;2023-04-24T13:00:14;17.10;99.90
8269;DHT22;4174;48.304;16.364;2023-04-24T13:06:19;16.90;99.90
8269;DHT22;4174;48.304;16.364;2023-04-24T13:12:22;16.60;99.90
8269;DHT22;4174;48.304;16.364;2023-04-24T13:18:26;16.90;99.90
8269;DHT22;4174;48.304;16.364;2023-04-24T13:24:30;16.90;99.90
8269;DHT22;4174;48.304;16.364;2023-04-24T13:30:34;16.90;99.90
8269;DHT22;4174;48.304;16.364;2023-04-24T13:36:37;17.00;99.90
8269;DHT22;4174;48.304;16.364;2023-04-24T13:42:41;17.20;99.90
8269;DHT22;4174;48.304;16.364;2023-04-24T13:48:44;17.50;99.90
8269;DHT22;4174;48.304;16.364;2023-04-24T13:54:49;17.50;99.90
8269;DHT22;4174;48.304;16.364;2023-04-24T14:00:53;17.20;99.90
8269;DHT22;4174;48.304;16.364;2023-04-24T14:06:57;17.20;99.90
8269;DHT22;4174;48.304;16.364;2023-04-24T14:13:00;17.00;99.90
8269;DHT22;4174;48.304;16.364;2023-04-24T14:19:03;16.80;99.90
8269;DHT22;4174;48.304;16.364;2023-04-24T14:25:08;15.70;99.90
8269;DHT22;4174;48.304;16.364;2023-04-24T14:31:11;15.20;99.90
8269;DHT22;4174;48.304;16.364;2023-04-24T14:37:15;15.10;99.90
8269;DHT22;4174;48.304;16.364;2023-04-24T14:43:19;15.30;99.90
8269;DHT22;4174;48.304;16.364;2023-04-24T14:49:23;15.60;99.90
8269;DHT22;4174;48.304;16.364;2023-04-24T14:55:26;16.00;99.90
8269;DHT22;4174;48.304;16.364;2023-04-24T15:01:29;16.10;99.90
8269;DHT22;4174;48.304;16.364;2023-04-24T15:07:32;16.10;99.90
8269;DHT22;4174;48.304;16.364;2023-04-24T15:13:37;16.00;99.90
8269;DHT22;4174;48.304;16.364;2023-04-24T15:19:40;16.00;99.90
8269;DHT22;4174;48.304;16.364;2023-04-24T15:25:44;16.10;99.90
8269;DHT22;4174;48.304;16.364;2023-04-24T15:31:47;16.10;99.90
8269;DHT22;4174;48.304;16.364;2023-04-24T15:37:51;15.90;99.90
8269;DHT22;4174;48.304;16.364;2023-04-24T15:43:55;15.70;99.90
8269;DHT22;4174;48.304;16.364;2023-04-24T15:49:58;15.00;99.90
8269;DHT22;4174;48.304;16.364;2023-04-24T15:56:04;13.70;99.90
8269;DHT22;4174;48.304;16.364;2023-04-24T16:02:08;13.60;99.90
8269;DHT22;4174;48.304;16.364;2023-04-24T16:08:12;13.30;99.90
8269;DHT22;4174;48.304;16.364;2023-04-24T16:14:16;13.40;99.90
8269;DHT22;4174;48.304;16.364;2023-04-24T16:20:20;13.40;99.90
8269;DHT22;4174;48.304;16.364;2023-04-24T16:26:24;13.00;99.90
8269;DHT22;4174;48.304;16.364;2023-04-24T16:32:28;12.80;99.90
8269;DHT22;4174;48.304;16.364;2023-04-24T16:38:32;12.70;99.90
8269;DHT22;4174;48.304;16.364;2023-04-24T16:44:36;12.80;99.90
8269;DHT22;4174;48.304;16.364;2023-04-24T16:50:40;12.80;99.90
8269;DHT22;4174;48.304;16.364;2023-04-24T16:56:44;12.80;99.90
8269;DHT22;4174;48.304;16.364;2023-04-24T17:02:48;12.90;99.90
8269;DHT22;4174;48.304;16.364;2023-04-24T17:08:51;13.10;99.90
8269;DHT22;4174;48.304;16.364;2023-04-24T17:14:54;12.70;99.90
8269;DHT22;4174;48.304;16.364;2023-04-24T17:20:58;12.70;99.90
8269;DHT22;4174;48.304;16.364;2023-04-24T17:27:01;12.70;99.90
8269;DHT22;4174;48.304;16.364;2023-04-24T17:33:05;12.80;99.90
8269;DHT22;4174;48.304;16.364;2023-04-24T17:39:09;12.70;99.90
8269;DHT22;4174;48.304;16.364;2023-04-24T17:45:13;12.80;99.90
8269;DHT22;4174;48.304;16.364;2023-04-24T17:51:17;12.70;99.90
8269;DHT22;4174;48.304;16.364;2023-04-24T17:57:20;12.70;99.90
8269;DHT22;4174;48.304;16.364;2023-04-24T18:03:24;12.70;99.90
8269;DHT22;4174;48.304;16.364;2023-04-24T18:09:28;12.50;99.90
8269;DHT22;4174;48.304;16.364;2023-04-24T18:15:32;12.40;99.90
8269;DHT22;4174;48.304;16.364;2023-04-24T18:21:35;12.50;99.90
8269;DHT22;4174;48.304;16.364;2023-04-24T18:27:39;12.30;99.90
8269;DHT22;4174;48.304;16.364;2023-04-24T18:33:41;12.20;99.90
8269;DHT22;4174;48.304;16.364;2023-04-24T18:39:44;12.10;99.90
8269;DHT22;4174;48.304;16.364;2023-04-24T18:45:48;12.00;99.90
8269;DHT22;4174;48.304;16.364;2023-04-24T18:51:52;11.90;99.90
8269;DHT22;4174;48.304;16.364;2023-04-24T18:57:57;11.90;99.90
8269;DHT22;4174;48.304;16.364;2023-04-24T19:04:00;11.80;99.90
8269;DHT22;4174;48.304;16.364;2023-04-24T19:10:04;11.90;99.90
8269;DHT22;4174;48.304;16.364;2023-04-24T19:16:08;11.80;99.90
8269;DHT22;4174;48.304;16.364;2023-04-24T19:22:12;11.70;99.90
8269;DHT22;4174;48.304;16.364;2023-04-24T19:28:16;11.60;99.90
8269;DHT22;4174;48.304;16.364;2023-04-24T19:34:19;11.60;99.90
8269;DHT22;4174;48.304;16.364;2023-04-24T19:40:23;11.70;99.90
8269;DHT22;4174;48.304;16.364;2023-04-24T19:46:27;11.70;99.90
8269;DHT22;4174;48.304;16.364;2023-04-24T19:52:30;11.60;99.90
8269;DHT22;4174;48.304;16.364;2023-04-24T19:58:34;11.70;99.90
8269;DHT22;4174;48.304;16.364;2023-04-24T20:04:37;11.70;99.90
8269;DHT22;4174;48.304;16.364;2023-04-24T20:10:40;11.70;99.90
8269;DHT22;4174;48.304;16.364;2023-04-24T20:16:44;11.60;99.90
8269;DHT22;4174;48.304;16.364;2023-04-24T20:22:48;11.80;99.90
8269;DHT22;4174;48.304;16.364;2023-04-24T20:28:52;11.70;99.90
8269;DHT22;4174;48.304;16.364;2023-04-24T20:34:55;11.80;99.90
8269;DHT22;4174;48.304;16.364;2023-04-24T20:40:58;11.60;99.90
8269;DHT22;4174;48.304;16.364;2023-04-24T20:47:03;11.70;99.90
8269;DHT22;4174;48.304;16.364;2023-04-24T20:53:06;11.70;99.90
8269;DHT22;4174;48.304;16.364;2023-04-24T20:59:10;11.60;99.90
8269;DHT22;4174;48.304;16.364;2023-04-24T21:05:14;11.60;99.90
8269;DHT22;4174;48.304;16.364;2023-04-24T21:11:17;11.60;99.90
8269;DHT22;4174;48.304;16.364;2023-04-24T21:17:20;11.60;99.90
8269;DHT22;4174;48.304;16.364;2023-04-24T21:23:24;11.70;99.90
8269;DHT22;4174;48.304;16.364;2023-04-24T21:29:27;11.70;99.90
8269;DHT22;4174;48.304;16.364;2023-04-24T21:35:32;11.70;99.90
8269;DHT22;4174;48.304;16.364;2023-04-24T21:41:35;11.60;99.90
8269;DHT22;4174;48.304;16.364;2023-04-24T21:47:41;11.60;99.90
8269;DHT22;4174;48.304;16.364;2023-04-24T21:53:44;11.70;99.90
8269;DHT22;4174;48.304;16.364;2023-04-24T21:59:48;11.70;99.90
8269;DHT22;4174;48.304;16.364;2023-04-24T22:05:52;11.60;99.90
8269;DHT22;4174;48.304;16.364;2023-04-24T22:11:55;11.50;99.90
8269;DHT22;4174;48.304;16.364;2023-04-24T22:17:59;11.60;99.90
8269;DHT22;4174;48.304;16.364;2023-04-24T22:24:03;11.60;99.90
8269;DHT22;4174;48.304;16.364;2023-04-24T22:30:09;11.50;99.90
8269;DHT22;4174;48.304;16.364;2023-04-24T22:36:13;11.50;99.90
8269;DHT22;4174;48.304;16.364;2023-04-24T22:42:16;11.40;99.90
8269;DHT22;4174;48.304;16.364;2023-04-24T22:48:19;11.50;99.90
8269;DHT22;4174;48.304;16.364;2023-04-24T22:54:23;11.50;99.90
8269;DHT22;4174;48.304;16.364;2023-04-24T23:00:26;11.50;99.90
8269;DHT22;4174;48.304;16.364;2023-04-24T23:06:30;11.40;99.90
8269;DHT22;4174;48.304;16.364;2023-04-24T23:12:33;11.50;99.90
8269;DHT22;4174;48.304;16.364;2023-04-24T23:18:36;11.40;99.90
8269;DHT22;4174;48.304;16.364;2023-04-24T23:24:40;11.50;99.90
8269;DHT22;4174;48.304;16.364;2023-04-24T23:30:43;11.30;99.90
8269;DHT22;4174;48.304;16.364;2023-04-24T23:36:47;11.30;99.90
8269;DHT22;4174;48.304;16.364;2023-04-24T23:42:50;11.30;99.90
8269;DHT22;4174;48.304;16.364;2023-04-24T23:48:54;11.50;99.90
8269;DHT22;4174;48.304;16.364;2023-04-24T23:54:58;11.30;99.90
